createdAt,value
2023-08-31T00:00:54.967Z,5.07
2023-08-31T00:03:22.362Z,5.10
2023-08-31T00:05:52.378Z,4.87
2023-08-31T00:08:19.651Z,5.07
2023-08-31T00:10:46.788Z,4.70
2023-08-31T00:13:14.037Z,5.30
2023-08-31T00:15:42.522Z,5.83
2023-08-31T00:18:11.407Z,5.53
2023-08-31T00:20:38.904Z,5.50
2023-08-31T00:23:06.372Z,6.13
2023-08-31T00:25:33.741Z,5.70
2023-08-31T00:28:06.118Z,5.67
2023-08-31T00:30:34.301Z,6.30
2023-08-31T00:33:01.996Z,5.87
2023-08-31T00:35:29.788Z,5.67
2023-08-31T00:37:59.773Z,4.33
2023-08-31T00:40:27.663Z,3.87
2023-08-31T00:42:55.032Z,3.97
2023-08-31T00:45:23.404Z,3.90
2023-08-31T00:47:51.249Z,3.63
2023-08-31T00:50:18.889Z,3.90
2023-08-31T00:52:46.431Z,3.50
2023-08-31T00:55:14.471Z,3.40
2023-08-31T00:57:42.260Z,2.97
2023-08-31T01:00:11.813Z,3.50
2023-08-31T01:03:07.480Z,3.23
2023-08-31T01:05:48.598Z,3.00
2023-08-31T01:09:00.286Z,3.13
2023-08-31T01:12:00.891Z,3.10
2023-08-31T01:14:43.682Z,2.97
2023-08-31T01:17:15.064Z,3.30
2023-08-31T01:19:54.296Z,3.30
2023-08-31T01:23:01.687Z,3.30
2023-08-31T01:25:29.651Z,3.30
2023-08-31T01:28:01.841Z,3.20
2023-08-31T01:30:32.875Z,3.20
2023-08-31T01:33:00.510Z,3.50
2023-08-31T01:35:33.407Z,3.97
2023-08-31T01:38:05.022Z,3.87
2023-08-31T01:40:51.235Z,4.30
2023-08-31T01:43:19.758Z,4.40
2023-08-31T01:45:49.119Z,4.33
2023-08-31T01:48:16.735Z,4.37
2023-08-31T01:50:45.152Z,4.07
2023-08-31T01:53:14.461Z,4.00
2023-08-31T01:55:43.043Z,4.20
2023-08-31T01:58:11.262Z,4.00
2023-08-31T02:00:39.776Z,3.97
2023-08-31T02:03:09.297Z,4.50
2023-08-31T02:05:36.905Z,4.33
2023-08-31T02:08:04.804Z,4.07
2023-08-31T02:10:32.286Z,3.90
2023-08-31T02:13:00.600Z,4.50
2023-08-31T02:15:28.207Z,4.80
2023-08-31T02:17:56.031Z,4.57
2023-08-31T02:20:23.525Z,5.07
2023-08-31T02:22:52.938Z,5.17
2023-08-31T02:25:20.485Z,4.90
2023-08-31T02:27:47.903Z,5.10
2023-08-31T02:30:17.421Z,5.07
2023-08-31T02:32:45.197Z,5.03
2023-08-31T02:35:15.277Z,5.17
2023-08-31T02:37:42.767Z,4.80
2023-08-31T02:40:12.891Z,5.40
2023-08-31T02:42:40.343Z,5.23
2023-08-31T02:45:08.434Z,5.40
2023-08-31T02:47:35.977Z,5.60
2023-08-31T02:50:03.839Z,5.13
2023-08-31T02:52:31.286Z,5.53
2023-08-31T02:54:58.704Z,5.97
2023-08-31T02:57:26.236Z,6.20
2023-08-31T02:59:53.738Z,6.80
2023-08-31T03:02:21.579Z,7.30
2023-08-31T03:04:49.342Z,7.47
2023-08-31T03:07:16.918Z,8.97
2023-08-31T03:09:44.390Z,8.83
2023-08-31T03:12:11.972Z,8.37
2023-08-31T03:14:39.356Z,8.83
2023-08-31T03:17:06.832Z,10.90
2023-08-31T03:19:34.513Z,11.73
2023-08-31T03:22:01.986Z,11.80
2023-08-31T03:24:29.427Z,12.17
2023-08-31T03:26:57.767Z,12.37
2023-08-31T03:29:25.353Z,12.00
2023-08-31T03:31:53.833Z,12.13
2023-08-31T03:34:21.557Z,12.20
2023-08-31T03:36:48.953Z,12.77
2023-08-31T03:39:17.289Z,14.17
2023-08-31T03:41:44.692Z,14.40
2023-08-31T03:44:12.210Z,15.97
2023-08-31T03:46:39.626Z,15.30
2023-08-31T03:49:07.084Z,14.83
2023-08-31T03:51:34.618Z,14.50
2023-08-31T03:54:02.828Z,15.17
2023-08-31T03:56:33.744Z,14.90
2023-08-31T03:59:06.893Z,15.47
2023-08-31T04:01:34.938Z,16.20
2023-08-31T04:04:03.258Z,16.77
2023-08-31T04:06:32.113Z,16.63
2023-08-31T04:08:59.541Z,16.50
2023-08-31T04:11:27.855Z,17.17
2023-08-31T04:13:55.287Z,17.83
2023-08-31T04:16:23.181Z,17.93
2023-08-31T04:18:55.559Z,18.00
2023-08-31T04:21:23.002Z,18.17
2023-08-31T04:23:50.486Z,18.37
2023-08-31T04:26:18.687Z,18.77
2023-08-31T04:28:46.196Z,20.50
2023-08-31T04:31:13.693Z,19.47
2023-08-31T04:33:42.009Z,20.30
2023-08-31T04:36:09.537Z,19.47
2023-08-31T04:38:36.908Z,20.37
2023-08-31T04:41:04.758Z,20.23
2023-08-31T04:43:32.721Z,20.13
2023-08-31T04:46:00.369Z,20.13
2023-08-31T04:48:28.285Z,20.67
2023-08-31T04:51:00.701Z,20.40
2023-08-31T04:53:28.157Z,19.63
2023-08-31T04:55:55.621Z,20.57
2023-08-31T04:58:23.315Z,20.93
2023-08-31T05:00:53.388Z,19.07
2023-08-31T05:03:21.026Z,21.07
2023-08-31T05:05:48.494Z,21.30
2023-08-31T05:08:16.382Z,22.67
2023-08-31T05:10:46.404Z,22.10
2023-08-31T05:13:14.037Z,21.83
2023-08-31T05:15:42.246Z,21.47
2023-08-31T05:18:10.311Z,23.20
2023-08-31T05:20:37.829Z,21.23
2023-08-31T05:23:05.394Z,21.43
2023-08-31T05:25:33.357Z,22.67
2023-08-31T05:28:00.838Z,23.17
2023-08-31T05:30:29.039Z,22.67
2023-08-31T05:32:56.610Z,21.93
2023-08-31T05:35:24.092Z,21.73
2023-08-31T05:37:51.484Z,21.03
2023-08-31T05:40:19.370Z,22.13
2023-08-31T05:42:47.363Z,21.63
2023-08-31T05:45:19.732Z,23.43
2023-08-31T05:47:47.440Z,22.53
2023-08-31T05:50:15.430Z,21.67
2023-08-31T05:52:45.262Z,22.43
2023-08-31T05:55:12.801Z,21.90
2023-08-31T05:57:40.828Z,23.43
2023-08-31T06:00:09.600Z,22.90
2023-08-31T06:02:45.953Z,23.37
2023-08-31T06:05:13.949Z,23.67
2023-08-31T06:07:41.354Z,24.13
2023-08-31T06:10:09.135Z,26.23
2023-08-31T06:12:36.719Z,25.10
2023-08-31T06:15:04.794Z,23.00
2023-08-31T06:17:32.362Z,22.67
2023-08-31T06:19:59.839Z,22.47
2023-08-31T06:22:27.251Z,22.77
2023-08-31T06:24:54.750Z,21.63
2023-08-31T06:27:22.269Z,22.47
2023-08-31T06:29:49.880Z,21.40
2023-08-31T06:32:18.554Z,21.50
2023-08-31T06:34:47.192Z,20.90
2023-08-31T06:37:14.625Z,19.83
2023-08-31T06:39:42.284Z,21.43
2023-08-31T06:42:09.878Z,20.57
2023-08-31T06:44:39.758Z,20.83
2023-08-31T06:47:07.433Z,20.80
2023-08-31T06:49:35.688Z,18.93
2023-08-31T06:52:08.153Z,19.27
2023-08-31T06:54:37.709Z,18.83
2023-08-31T06:57:05.493Z,16.97
2023-08-31T06:59:32.950Z,23.90
2023-08-31T07:02:00.495Z,17.50
2023-08-31T07:04:28.696Z,15.47
2023-08-31T07:06:56.172Z,16.17
2023-08-31T07:09:23.645Z,15.20
2023-08-31T07:11:51.743Z,15.00
2023-08-31T07:14:20.742Z,13.67
2023-08-31T07:16:48.464Z,13.80
2023-08-31T07:19:16.097Z,13.90
2023-08-31T07:21:43.590Z,14.27
2023-08-31T07:24:11.234Z,13.90
2023-08-31T07:26:38.872Z,13.93
2023-08-31T07:29:06.471Z,13.10
2023-08-31T07:31:37.337Z,11.10
2023-08-31T07:34:05.270Z,10.97
2023-08-31T07:36:38.060Z,10.43
2023-08-31T07:39:06.200Z,11.10
2023-08-31T07:41:33.853Z,9.97
2023-08-31T07:44:04.614Z,9.90
2023-08-31T07:46:32.930Z,9.77
2023-08-31T07:49:00.557Z,9.33
2023-08-31T07:51:28.025Z,9.03
2023-08-31T07:53:55.476Z,8.90
2023-08-31T07:56:25.190Z,9.13
2023-08-31T07:58:52.587Z,8.37
2023-08-31T08:01:20.093Z,8.13
2023-08-31T08:03:47.642Z,7.47
2023-08-31T08:06:15.206Z,7.93
2023-08-31T08:08:43.130Z,7.40
2023-08-31T08:11:10.537Z,6.40
2023-08-31T08:13:37.946Z,6.83
2023-08-31T08:16:05.549Z,5.97
2023-08-31T08:18:32.946Z,5.40
2023-08-31T08:21:00.726Z,5.10
2023-08-31T08:23:28.249Z,4.30
2023-08-31T08:25:55.800Z,4.43
2023-08-31T08:28:23.352Z,4.80
2023-08-31T08:30:51.408Z,5.10
2023-08-31T08:33:18.926Z,3.80
2023-08-31T08:35:47.062Z,3.57
2023-08-31T08:38:14.676Z,3.53
2023-08-31T08:40:42.097Z,3.37
2023-08-31T08:43:12.258Z,2.90
2023-08-31T08:45:42.708Z,2.90
2023-08-31T08:48:10.727Z,3.00
2023-08-31T08:50:38.715Z,3.23
2023-08-31T08:53:07.550Z,3.60
2023-08-31T08:55:35.679Z,3.27
2023-08-31T08:58:04.482Z,3.47
2023-08-31T09:00:32.452Z,3.13
2023-08-31T09:03:04.973Z,3.03
2023-08-31T09:05:34.312Z,4.83
2023-08-31T09:08:11.452Z,2.33
2023-08-31T09:10:46.033Z,3.00
2023-08-31T09:13:19.270Z,2.50
2023-08-31T09:15:50.630Z,2.40
2023-08-31T09:18:29.359Z,3.83
2023-08-31T09:20:57.959Z,2.03
2023-08-31T09:23:26.601Z,1.70
2023-08-31T09:25:56.938Z,1.93
2023-08-31T09:28:31.496Z,2.87
2023-08-31T09:31:09.796Z,2.00
2023-08-31T09:33:38.471Z,1.40
2023-08-31T09:36:09.397Z,1.50
2023-08-31T09:38:44.881Z,1.50
2023-08-31T09:41:13.214Z,1.50
2023-08-31T09:43:40.620Z,1.23
2023-08-31T09:46:10.031Z,1.40
2023-08-31T09:48:41.321Z,1.40
2023-08-31T09:51:11.409Z,1.20
2023-08-31T09:53:42.686Z,0.97
2023-08-31T09:56:18.980Z,1.20
2023-08-31T09:58:46.410Z,1.40
2023-08-31T10:01:27.451Z,1.57
2023-08-31T10:03:55.911Z,1.20
2023-08-31T10:06:24.036Z,1.33
2023-08-31T10:08:52.266Z,1.30
2023-08-31T10:11:20.191Z,1.20
2023-08-31T10:13:50.426Z,1.30
2023-08-31T10:16:20.395Z,1.20
2023-08-31T10:18:48.120Z,1.17
2023-08-31T10:21:19.152Z,2.37
2023-08-31T10:23:50.976Z,1.40
2023-08-31T10:26:32.374Z,1.20
2023-08-31T10:29:01.400Z,1.40
2023-08-31T10:31:32.631Z,1.30
2023-08-31T10:34:05.300Z,1.03
2023-08-31T10:36:42.410Z,1.17
2023-08-31T10:39:20.585Z,1.60
2023-08-31T10:41:58.496Z,1.10
2023-08-31T10:44:28.515Z,1.10
2023-08-31T10:46:56.447Z,1.23
2023-08-31T10:49:25.063Z,1.10
2023-08-31T10:52:36.333Z,1.30
2023-08-31T10:55:09.915Z,1.07
2023-08-31T11:00:12.226Z,1.20
2023-08-31T11:02:44.522Z,1.20
2023-08-31T11:05:22.396Z,1.30
2023-08-31T11:07:54.528Z,1.50
2023-08-31T11:10:25.065Z,1.30
2023-08-31T11:12:56.218Z,1.20
2023-08-31T11:15:31.413Z,1.20
2023-08-31T11:17:59.632Z,1.10
2023-08-31T11:20:31.671Z,1.30
2023-08-31T11:22:59.540Z,1.10
2023-08-31T11:25:27.366Z,1.10
2023-08-31T11:28:06.619Z,1.20
2023-08-31T11:30:36.036Z,1.10
2023-08-31T11:33:12.504Z,1.30
2023-08-31T11:35:44.071Z,1.47
2023-08-31T11:38:12.415Z,1.43
2023-08-31T11:40:40.136Z,1.30
2023-08-31T11:43:08.888Z,1.40
2023-08-31T11:45:38.460Z,1.30
2023-08-31T11:48:07.925Z,1.40
2023-08-31T11:50:37.169Z,1.20
2023-08-31T11:53:05.113Z,12.77
2023-08-31T11:55:35.075Z,1.83
2023-08-31T11:58:02.795Z,1.47
2023-08-31T12:00:41.009Z,1.40
2023-08-31T12:03:18.514Z,1.30
2023-08-31T12:05:51.040Z,1.33
2023-08-31T12:08:32.090Z,1.07
2023-08-31T12:11:15.566Z,1.10
2023-08-31T12:13:43.802Z,1.20
2023-08-31T12:16:16.506Z,1.20
2023-08-31T12:18:44.941Z,1.30
2023-08-31T12:21:12.263Z,1.20
2023-08-31T12:23:39.511Z,1.03
2023-08-31T12:26:08.959Z,1.10
2023-08-31T12:28:36.207Z,1.00
2023-08-31T12:31:03.634Z,1.20
2023-08-31T12:33:31.006Z,1.10
2023-08-31T12:35:58.125Z,1.20
2023-08-31T12:38:25.424Z,1.20
2023-08-31T12:40:53.496Z,0.80
2023-08-31T12:43:21.239Z,0.90
2023-08-31T12:45:48.980Z,1.10
2023-08-31T12:48:16.484Z,1.10
2023-08-31T12:50:43.776Z,1.20
2023-08-31T12:53:11.006Z,1.00
2023-08-31T12:55:38.142Z,1.17
2023-08-31T12:58:05.371Z,1.20
2023-08-31T13:00:33.070Z,4.10
2023-08-31T13:03:01.576Z,1.40
2023-08-31T13:05:31.016Z,1.30
2023-08-31T13:07:58.277Z,1.07
2023-08-31T13:10:25.590Z,1.30
2023-08-31T13:12:52.888Z,1.20
2023-08-31T13:15:20.142Z,1.00
2023-08-31T13:17:47.650Z,1.20
2023-08-31T13:20:15.079Z,1.10
2023-08-31T13:22:42.375Z,1.20
2023-08-31T13:25:10.115Z,1.10
2023-08-31T13:27:37.437Z,1.00
2023-08-31T13:30:07.174Z,1.00
2023-08-31T13:32:35.429Z,1.17
2023-08-31T13:35:02.762Z,1.10
2023-08-31T13:37:30.097Z,1.30
2023-08-31T13:39:57.472Z,1.00
2023-08-31T13:42:24.683Z,1.00
2023-08-31T13:44:51.872Z,1.30
2023-08-31T13:47:19.348Z,5.80
2023-08-31T13:49:46.505Z,1.57
2023-08-31T13:52:13.832Z,1.20
2023-08-31T13:54:40.997Z,1.00
2023-08-31T13:57:08.209Z,1.10
2023-08-31T13:59:35.474Z,1.20
2023-08-31T14:02:04.826Z,0.90
2023-08-31T14:04:32.003Z,1.27
2023-08-31T14:06:59.157Z,1.30
2023-08-31T14:09:29.607Z,1.47
2023-08-31T14:11:58.302Z,1.13
2023-08-31T14:14:26.182Z,2.57
2023-08-31T14:16:53.413Z,1.40
2023-08-31T14:19:21.305Z,1.20
2023-08-31T14:21:49.394Z,1.10
2023-08-31T14:24:16.603Z,1.20
2023-08-31T14:26:46.109Z,1.20
2023-08-31T14:29:15.788Z,1.07
2023-08-31T14:31:45.570Z,1.40
2023-08-31T14:34:13.278Z,1.10
2023-08-31T14:36:41.015Z,0.87
2023-08-31T14:39:08.131Z,1.13
2023-08-31T14:41:35.227Z,1.20
2023-08-31T14:44:02.544Z,1.40
2023-08-31T14:46:29.977Z,1.17
2023-08-31T14:48:57.439Z,2.70
2023-08-31T14:51:24.694Z,1.20
2023-08-31T14:53:51.949Z,1.20
2023-08-31T14:56:19.235Z,1.30
2023-08-31T14:58:46.834Z,1.30
2023-08-31T15:01:14.084Z,1.20
2023-08-31T15:03:41.285Z,1.10
2023-08-31T15:06:08.503Z,1.20
2023-08-31T15:08:42.222Z,1.53
2023-08-31T15:11:10.303Z,1.50
2023-08-31T15:13:37.834Z,1.40
2023-08-31T15:16:05.254Z,2.30
2023-08-31T15:18:32.669Z,2.07
2023-08-31T15:20:59.953Z,1.60
2023-08-31T15:23:27.304Z,1.20
2023-08-31T15:26:02.080Z,32.20
2023-08-31T15:28:29.456Z,2.43
2023-08-31T15:30:56.758Z,1.57
2023-08-31T15:33:23.985Z,1.40
2023-08-31T15:35:51.487Z,1.60
2023-08-31T15:38:18.685Z,1.47
2023-08-31T15:40:51.001Z,1.40
2023-08-31T15:43:20.011Z,1.70
2023-08-31T15:45:50.627Z,2.43
2023-08-31T15:48:17.912Z,1.77
2023-08-31T15:50:45.232Z,2.80
2023-08-31T15:53:12.358Z,1.63
2023-08-31T15:55:39.556Z,2.00
2023-08-31T15:58:06.834Z,1.67
2023-08-31T16:00:35.344Z,1.80
2023-08-31T16:03:02.636Z,1.80
2023-08-31T16:05:29.855Z,2.03
2023-08-31T16:07:56.977Z,1.80
2023-08-31T16:10:24.192Z,1.63
2023-08-31T16:12:51.364Z,2.00
2023-08-31T16:15:18.549Z,1.83
2023-08-31T16:17:45.917Z,1.50
2023-08-31T16:20:13.150Z,1.90
2023-08-31T16:22:40.647Z,1.90
2023-08-31T16:25:08.350Z,2.03
2023-08-31T16:27:35.673Z,2.07
2023-08-31T16:30:03.281Z,1.80
2023-08-31T16:32:30.655Z,1.90
2023-08-31T16:34:58.036Z,2.20
2023-08-31T16:37:25.445Z,2.07
2023-08-31T16:39:53.090Z,2.13
2023-08-31T16:42:20.376Z,3.33
2023-08-31T16:44:47.492Z,2.13
2023-08-31T16:47:14.577Z,1.87
2023-08-31T16:49:43.462Z,2.10
2023-08-31T16:52:11.601Z,2.00
2023-08-31T16:54:38.816Z,2.50
2023-08-31T16:57:06.050Z,2.30
2023-08-31T16:59:33.327Z,1.77
2023-08-31T17:02:01.778Z,2.50
2023-08-31T17:04:29.075Z,1.87
2023-08-31T17:06:56.252Z,2.30
2023-08-31T17:09:23.384Z,1.80
2023-08-31T17:11:50.590Z,1.80
2023-08-31T17:14:20.738Z,1.60
2023-08-31T17:16:48.118Z,1.60
2023-08-31T17:19:15.450Z,1.50
2023-08-31T17:21:42.617Z,1.73
2023-08-31T17:24:09.794Z,1.57
2023-08-31T17:26:36.941Z,1.70
2023-08-31T17:29:05.269Z,1.50
2023-08-31T17:31:32.413Z,1.47
2023-08-31T17:33:59.685Z,1.50
2023-08-31T17:36:27.308Z,1.70
2023-08-31T17:38:54.467Z,1.80
2023-08-31T17:41:23.077Z,1.30
2023-08-31T17:43:50.356Z,1.40
2023-08-31T17:46:17.561Z,1.30
2023-08-31T17:48:46.134Z,1.53
2023-08-31T17:51:14.064Z,1.40
2023-08-31T17:53:45.501Z,1.53
2023-08-31T17:56:12.775Z,1.43
2023-08-31T17:58:39.938Z,1.30
2023-08-31T18:01:07.081Z,1.30
2023-08-31T18:03:34.536Z,1.33
2023-08-31T18:06:03.691Z,1.30
2023-08-31T18:08:32.670Z,1.30
2023-08-31T18:11:00.741Z,1.57
2023-08-31T18:13:27.850Z,1.40
2023-08-31T18:15:56.184Z,1.70
2023-08-31T18:18:23.748Z,1.40
2023-08-31T18:20:51.323Z,1.50
2023-08-31T18:23:18.423Z,1.70
2023-08-31T18:25:48.610Z,1.50
2023-08-31T18:28:16.006Z,1.70
2023-08-31T18:30:56.396Z,1.67
2023-08-31T18:33:25.408Z,1.53
2023-08-31T18:35:54.790Z,1.83
2023-08-31T18:38:23.349Z,1.93
2023-08-31T18:40:55.363Z,1.63
2023-08-31T18:43:24.824Z,2.20
2023-08-31T18:45:53.991Z,1.70
2023-08-31T18:48:21.284Z,3.13
2023-08-31T18:51:00.123Z,1.70
2023-08-31T18:53:27.981Z,1.90
2023-08-31T18:56:02.047Z,1.90
2023-08-31T18:58:30.200Z,1.80
2023-08-31T19:01:00.921Z,1.60
2023-08-31T19:03:30.115Z,1.77
2023-08-31T19:05:57.838Z,1.60
2023-08-31T19:08:25.026Z,1.87
2023-08-31T19:10:52.145Z,1.83
2023-08-31T19:13:19.667Z,1.63
2023-08-31T19:15:46.958Z,1.90
2023-08-31T19:18:14.476Z,1.63
2023-08-31T19:20:42.289Z,1.70
2023-08-31T19:23:09.586Z,1.80
2023-08-31T19:25:36.776Z,1.70
2023-08-31T19:28:06.729Z,1.50
2023-08-31T19:30:34.589Z,2.20
2023-08-31T19:33:03.065Z,1.70
2023-08-31T19:35:56.778Z,1.73
2023-08-31T19:38:18.746Z,1.80
2023-08-31T19:40:46.405Z,2.00
2023-08-31T19:43:16.730Z,1.73
2023-08-31T19:45:45.334Z,1.97
2023-08-31T19:48:13.601Z,2.10
2023-08-31T19:50:41.305Z,2.03
2023-08-31T19:53:09.754Z,1.97
2023-08-31T19:55:37.982Z,1.90
2023-08-31T19:58:05.652Z,1.63
2023-08-31T20:00:33.113Z,1.93
2023-08-31T20:03:00.508Z,1.53
2023-08-31T20:05:27.886Z,1.90
2023-08-31T20:07:56.062Z,1.77
2023-08-31T20:10:23.786Z,1.70
2023-08-31T20:12:51.106Z,1.83
2023-08-31T20:15:18.440Z,1.60
2023-08-31T20:17:45.830Z,2.47
2023-08-31T20:20:14.279Z,30.60
2023-08-31T20:22:42.198Z,1.70
2023-08-31T20:25:10.992Z,1.90
2023-08-31T20:27:39.064Z,1.80
2023-08-31T20:30:07.937Z,1.83
2023-08-31T20:32:35.463Z,1.60
2023-08-31T20:35:02.591Z,1.70
2023-08-31T20:37:29.760Z,1.70
2023-08-31T20:39:56.911Z,1.40
2023-08-31T20:42:24.105Z,1.67
2023-08-31T20:44:51.875Z,1.60
2023-08-31T20:47:21.700Z,1.87
2023-08-31T20:49:48.841Z,1.70
2023-08-31T20:52:16.549Z,1.70
2023-08-31T20:54:43.728Z,1.60
2023-08-31T20:57:10.921Z,1.87
2023-08-31T20:59:38.130Z,1.90
2023-08-31T21:02:05.335Z,2.60
2023-08-31T21:04:33.019Z,1.60
2023-08-31T21:07:00.185Z,1.50
2023-08-31T21:09:27.331Z,1.83
2023-08-31T21:11:56.569Z,1.80
2023-08-31T21:14:23.976Z,1.87
2023-08-31T21:16:51.534Z,1.80
2023-08-31T21:19:18.794Z,2.97
2023-08-31T21:21:48.783Z,2.27
2023-08-31T21:24:17.885Z,1.57
2023-08-31T21:26:46.147Z,1.80
2023-08-31T21:29:13.602Z,1.90
2023-08-31T21:31:40.902Z,1.97
2023-08-31T21:34:08.433Z,1.70
2023-08-31T21:36:35.945Z,1.63
2023-08-31T21:39:03.832Z,2.20
2023-08-31T21:41:31.188Z,1.90
2023-08-31T21:43:59.190Z,1.90
2023-08-31T21:46:26.566Z,1.97
2023-08-31T21:48:54.117Z,1.90
2023-08-31T21:51:22.865Z,1.67
2023-08-31T21:53:50.365Z,2.00
2023-08-31T21:56:17.555Z,2.00
2023-08-31T21:58:46.098Z,1.90
2023-08-31T22:01:13.435Z,2.00
2023-08-31T22:03:40.683Z,2.00
2023-08-31T22:06:09.764Z,2.00
2023-08-31T22:08:37.841Z,2.10
2023-08-31T22:11:06.979Z,2.03
2023-08-31T22:13:35.713Z,2.00
2023-08-31T22:16:09.367Z,1.80
2023-08-31T22:18:50.358Z,2.00
2023-08-31T22:21:18.460Z,2.10
2023-08-31T22:23:45.658Z,1.77
2023-08-31T22:26:12.825Z,1.97
2023-08-31T22:28:40.094Z,1.87
2023-08-31T22:31:07.459Z,2.07
2023-08-31T22:33:34.705Z,1.90
2023-08-31T22:36:05.405Z,2.63
2023-08-31T22:38:32.639Z,7.50
2023-08-31T22:40:59.859Z,2.20
2023-08-31T22:43:27.119Z,2.00
2023-08-31T22:45:58.258Z,2.10
2023-08-31T22:48:25.585Z,3.40
2023-08-31T22:51:04.796Z,2.27
2023-08-31T22:53:32.907Z,2.57
2023-08-31T22:56:00.299Z,2.40
2023-08-31T22:58:30.862Z,2.80
2023-08-31T23:00:58.411Z,2.50
2023-08-31T23:03:26.041Z,2.33
2023-08-31T23:05:53.733Z,2.40
2023-08-31T23:08:20.906Z,2.03
2023-08-31T23:10:48.236Z,2.33
2023-08-31T23:13:15.421Z,2.10
2023-08-31T23:15:44.276Z,2.90
2023-08-31T23:18:12.539Z,2.40
2023-08-31T23:20:40.372Z,2.20
2023-08-31T23:23:07.602Z,2.30
2023-08-31T23:25:34.818Z,2.10
2023-08-31T23:28:02.010Z,2.20
2023-08-31T23:30:29.276Z,2.30
2023-08-31T23:32:56.645Z,2.70
2023-08-31T23:35:23.972Z,2.27
2023-08-31T23:37:51.166Z,2.33
2023-08-31T23:40:18.330Z,2.20
2023-08-31T23:42:45.833Z,1.93
2023-08-31T23:45:13.047Z,2.13
2023-08-31T23:47:40.267Z,2.30
2023-08-31T23:50:07.916Z,2.40
2023-08-31T23:52:35.136Z,2.30
2023-08-31T23:55:02.352Z,2.13
2023-08-31T23:57:30.302Z,2.63
2023-08-31T23:59:58.239Z,2.43
